sensor_id;sensor_type;location;lat;lon;timestamp;pressure;altitude;pressure_sealevel;temperature;humidity
6851;BME280;3464;42.728;23.296;2022-09-23T00:02:09;95487.08;;;14.21;63.25
6851;BME280;3464;42.728;23.296;2022-09-23T00:04:35;95491.76;;;14.11;63.10
6851;BME280;3464;42.728;23.296;2022-09-23T00:07:02;95488.36;;;14.21;63.04
6851;BME280;3464;42.728;23.296;2022-09-23T00:09:28;95492.59;;;14.13;63.21
6851;BME280;3464;42.728;23.296;2022-09-23T00:11:55;95484.15;;;14.07;63.34
6851;BME280;3464;42.728;23.296;2022-09-23T00:14:22;95485.84;;;14.03;63.39
6851;BME280;3464;42.728;23.296;2022-09-23T00:16:50;95476.99;;;13.90;63.73
6851;BME280;3464;42.728;23.296;2022-09-23T00:19:17;95479.97;;;13.78;63.82
6851;BME280;3464;42.728;23.296;2022-09-23T00:21:45;95477.84;;;13.45;65.02
6851;BME280;3464;42.728;23.296;2022-09-23T00:24:12;95479.53;;;13.57;64.69
6851;BME280;3464;42.728;23.296;2022-09-23T00:26:40;95480.39;;;13.74;63.96
6851;BME280;3464;42.728;23.296;2022-09-23T00:29:07;95481.22;;;13.44;64.57
6851;BME280;3464;42.728;23.296;2022-09-23T00:31:34;95473.22;;;13.51;64.28
6851;BME280;3464;42.728;23.296;2022-09-23T00:34:01;95472.79;;;13.48;64.43
6851;BME280;3464;42.728;23.296;2022-09-23T00:36:27;95473.22;;;13.50;64.02
6851;BME280;3464;42.728;23.296;2022-09-23T00:38:54;95475.31;;;13.45;64.09
6851;BME280;3464;42.728;23.296;2022-09-23T00:41:21;95474.05;;;13.35;64.33
6851;BME280;3464;42.728;23.296;2022-09-23T00:43:50;95476.94;;;13.14;65.00
6851;BME280;3464;42.728;23.296;2022-09-23T00:46:19;95474.44;;;13.26;64.63
6851;BME280;3464;42.728;23.296;2022-09-23T00:48:45;95469.83;;;13.34;64.23
6851;BME280;3464;42.728;23.296;2022-09-23T00:51:15;95466.87;;;13.35;64.27
6851;BME280;3464;42.728;23.296;2022-09-23T00:53:39;95462.23;;;13.31;64.27
6851;BME280;3464;42.728;23.296;2022-09-23T00:56:07;95471.91;;;13.13;64.86
6851;BME280;3464;42.728;23.296;2022-09-23T00:58:34;95466.44;;;13.22;64.46
6851;BME280;3464;42.728;23.296;2022-09-23T01:01:01;95471.48;;;13.27;64.30
6851;BME280;3464;42.728;23.296;2022-09-23T01:03:27;95469.00;;;13.40;63.93
6851;BME280;3464;42.728;23.296;2022-09-23T01:05:54;95466.00;;;13.10;64.49
6851;BME280;3464;42.728;23.296;2022-09-23T01:08:21;95470.22;;;13.12;64.78
6851;BME280;3464;42.728;23.296;2022-09-23T01:11:02;95467.23;;;13.01;64.80
6851;BME280;3464;42.728;23.296;2022-09-23T01:13:35;95475.66;;;13.03;64.98
6851;BME280;3464;42.728;23.296;2022-09-23T01:16:21;95476.52;;;13.03;64.62
6851;BME280;3464;42.728;23.296;2022-09-23T01:18:50;95479.07;;;13.12;64.40
6851;BME280;3464;42.728;23.296;2022-09-23T01:21:20;95482.00;;;13.10;64.51
6851;BME280;3464;42.728;23.296;2022-09-23T01:24:07;95482.02;;;13.16;64.38
6851;BME280;3464;42.728;23.296;2022-09-23T01:26:41;95477.78;;;13.11;64.54
6851;BME280;3464;42.728;23.296;2022-09-23T01:29:18;95486.55;;;12.93;65.32
6851;BME280;3464;42.728;23.296;2022-09-23T01:31:45;95484.10;;;13.10;64.93
6851;BME280;3464;42.728;23.296;2022-09-23T01:34:14;95479.48;;;13.09;64.73
6851;BME280;3464;42.728;23.296;2022-09-23T01:36:40;95490.83;;;13.04;65.33
6851;BME280;3464;42.728;23.296;2022-09-23T01:39:08;95487.40;;;12.90;65.85
6851;BME280;3464;42.728;23.296;2022-09-23T01:41:45;95490.30;;;12.78;66.43
6851;BME280;3464;42.728;23.296;2022-09-23T01:44:21;95487.48;;;13.10;65.19
6851;BME280;3464;42.728;23.296;2022-09-23T01:46:52;95490.41;;;13.04;65.01
6851;BME280;3464;42.728;23.296;2022-09-23T01:49:21;95486.98;;;12.98;64.89
6851;BME280;3464;42.728;23.296;2022-09-23T01:51:50;95489.05;;;12.83;65.24
6851;BME280;3464;42.728;23.296;2022-09-23T01:54:20;95486.06;;;12.76;65.39
6851;BME280;3464;42.728;23.296;2022-09-23T01:56:49;95492.77;;;12.59;66.26
6851;BME280;3464;42.728;23.296;2022-09-23T01:59:18;95491.82;;;12.40;67.11
6851;BME280;3464;42.728;23.296;2022-09-23T02:04:34;95491.84;;;12.43;67.09
6851;BME280;3464;42.728;23.296;2022-09-23T02:07:02;95490.57;;;12.45;66.86
6851;BME280;3464;42.728;23.296;2022-09-23T02:09:30;95487.16;;;12.34;66.94
6851;BME280;3464;42.728;23.296;2022-09-23T02:11:56;95488.08;;;12.49;66.80
6851;BME280;3464;42.728;23.296;2022-09-23T02:14:24;95490.97;;;12.40;66.68
6851;BME280;3464;42.728;23.296;2022-09-23T02:16:50;95487.11;;;12.25;67.83
6851;BME280;3464;42.728;23.296;2022-09-23T02:19:27;95488.84;;;12.38;67.88
6851;BME280;3464;42.728;23.296;2022-09-23T02:21:54;95488.83;;;12.36;67.51
6851;BME280;3464;42.728;23.296;2022-09-23T02:24:29;95489.27;;;12.38;67.26
6851;BME280;3464;42.728;23.296;2022-09-23T02:27:16;95490.90;;;12.25;68.21
6851;BME280;3464;42.728;23.296;2022-09-23T02:29:56;95490.52;;;12.33;68.37
6851;BME280;3464;42.728;23.296;2022-09-23T02:32:24;95493.91;;;12.42;67.97
6851;BME280;3464;42.728;23.296;2022-09-23T02:37:45;95494.72;;;12.31;68.52
6851;BME280;3464;42.728;23.296;2022-09-23T02:40:23;95498.55;;;12.41;68.38
6851;BME280;3464;42.728;23.296;2022-09-23T02:45:24;95490.98;;;12.43;68.06
6851;BME280;3464;42.728;23.296;2022-09-23T02:47:51;95492.73;;;12.59;67.16
6851;BME280;3464;42.728;23.296;2022-09-23T02:50:17;95491.42;;;12.44;67.90
6851;BME280;3464;42.728;23.296;2022-09-23T02:52:44;95491.73;;;12.29;68.34
6851;BME280;3464;42.728;23.296;2022-09-23T02:55:10;95496.91;;;12.48;67.58
6851;BME280;3464;42.728;23.296;2022-09-23T02:57:38;95496.83;;;12.36;67.53
6851;BME280;3464;42.728;23.296;2022-09-23T03:00:05;95501.73;;;12.12;68.62
6851;BME280;3464;42.728;23.296;2022-09-23T03:02:40;95497.16;;;12.20;68.87
6851;BME280;3464;42.728;23.296;2022-09-23T03:05:10;95497.20;;;12.26;68.74
6851;BME280;3464;42.728;23.296;2022-09-23T03:08:04;95498.45;;;12.22;68.61
6851;BME280;3464;42.728;23.296;2022-09-23T03:10:29;95496.87;;;12.40;68.24
6851;BME280;3464;42.728;23.296;2022-09-23T03:13:15;95496.48;;;12.47;67.96
6851;BME280;3464;42.728;23.296;2022-09-23T03:15:50;95498.63;;;11.88;69.62
6851;BME280;3464;42.728;23.296;2022-09-23T03:18:22;95496.77;;;12.24;68.51
6851;BME280;3464;42.728;23.296;2022-09-23T03:20:48;95496.66;;;12.07;68.72
6851;BME280;3464;42.728;23.296;2022-09-23T03:23:16;95495.84;;;12.08;68.85
6851;BME280;3464;42.728;23.296;2022-09-23T03:25:48;95497.13;;;12.16;68.34
6851;BME280;3464;42.728;23.296;2022-09-23T03:28:15;95496.31;;;12.17;68.57
6851;BME280;3464;42.728;23.296;2022-09-23T03:30:42;95504.11;;;11.90;69.39
6851;BME280;3464;42.728;23.296;2022-09-23T03:33:09;95508.28;;;11.83;69.62
6851;BME280;3464;42.728;23.296;2022-09-23T03:35:37;95494.17;;;12.09;69.50
6851;BME280;3464;42.728;23.296;2022-09-23T03:38:08;95494.20;;;12.14;69.14
6851;BME280;3464;42.728;23.296;2022-09-23T03:40:33;95488.74;;;12.19;68.51
6851;BME280;3464;42.728;23.296;2022-09-23T03:42:58;95499.77;;;12.34;68.29
6851;BME280;3464;42.728;23.296;2022-09-23T03:45:27;95496.72;;;12.14;69.23
6851;BME280;3464;42.728;23.296;2022-09-23T03:47:51;95506.25;;;11.96;70.33
6851;BME280;3464;42.728;23.296;2022-09-23T03:50:18;95506.34;;;12.06;70.33
6851;BME280;3464;42.728;23.296;2022-09-23T03:52:45;95505.16;;;12.18;69.64
6851;BME280;3464;42.728;23.296;2022-09-23T03:55:11;95515.60;;;12.10;69.77
6851;BME280;3464;42.728;23.296;2022-09-23T03:57:38;95516.90;;;12.15;69.33
6851;BME280;3464;42.728;23.296;2022-09-23T04:00:05;95511.58;;;11.78;69.85
6851;BME280;3464;42.728;23.296;2022-09-23T04:02:31;95513.92;;;12.11;69.20
6851;BME280;3464;42.728;23.296;2022-09-23T04:04:58;95512.80;;;12.32;67.85
6851;BME280;3464;42.728;23.296;2022-09-23T04:07:24;95513.03;;;12.04;68.04
6851;BME280;3464;42.728;23.296;2022-09-23T04:09:51;95520.66;;;12.12;67.82
6851;BME280;3464;42.728;23.296;2022-09-23T04:12:18;95524.80;;;11.99;68.42
6851;BME280;3464;42.728;23.296;2022-09-23T04:14:44;95518.68;;;12.31;68.66
6851;BME280;3464;42.728;23.296;2022-09-23T04:17:11;95523.83;;;12.43;68.62
6851;BME280;3464;42.728;23.296;2022-09-23T04:19:38;95517.52;;;12.43;70.08
6851;BME280;3464;42.728;23.296;2022-09-23T04:22:04;95529.74;;;12.51;69.37
6851;BME280;3464;42.728;23.296;2022-09-23T04:24:31;95521.66;;;12.38;70.67
6851;BME280;3464;42.728;23.296;2022-09-23T04:26:58;95528.86;;;12.46;70.79
6851;BME280;3464;42.728;23.296;2022-09-23T04:29:25;95526.43;;;12.63;70.77
6851;BME280;3464;42.728;23.296;2022-09-23T04:31:52;95528.19;;;12.79;70.46
6851;BME280;3464;42.728;23.296;2022-09-23T04:34:18;95529.03;;;12.82;70.35
6851;BME280;3464;42.728;23.296;2022-09-23T04:36:45;95528.33;;;13.08;70.32
6851;BME280;3464;42.728;23.296;2022-09-23T04:39:13;95532.14;;;13.17;69.64
6851;BME280;3464;42.728;23.296;2022-09-23T04:41:40;95541.91;;;13.44;69.37
6851;BME280;3464;42.728;23.296;2022-09-23T04:44:06;95544.91;;;13.80;68.05
6851;BME280;3464;42.728;23.296;2022-09-23T04:46:32;95547.42;;;13.89;67.67
6851;BME280;3464;42.728;23.296;2022-09-23T04:48:59;95546.97;;;13.44;68.09
6851;BME280;3464;42.728;23.296;2022-09-23T04:51:26;95545.73;;;13.67;68.52
6851;BME280;3464;42.728;23.296;2022-09-23T04:53:53;95549.53;;;13.67;68.49
6851;BME280;3464;42.728;23.296;2022-09-23T04:56:20;95549.55;;;13.73;68.29
6851;BME280;3464;42.728;23.296;2022-09-23T04:58:46;95550.81;;;13.78;67.63
6851;BME280;3464;42.728;23.296;2022-09-23T05:01:15;95549.14;;;13.97;67.50
6851;BME280;3464;42.728;23.296;2022-09-23T05:03:41;95544.06;;;14.10;67.12
6851;BME280;3464;42.728;23.296;2022-09-23T05:06:08;95538.57;;;14.08;67.23
6851;BME280;3464;42.728;23.296;2022-09-23T05:08:34;95541.53;;;14.01;67.19
6851;BME280;3464;42.728;23.296;2022-09-23T05:11:02;95541.91;;;14.55;65.47
6851;BME280;3464;42.728;23.296;2022-09-23T05:13:27;95540.56;;;14.85;64.98
6851;BME280;3464;42.728;23.296;2022-09-23T05:15:58;95535.53;;;14.78;64.35
6851;BME280;3464;42.728;23.296;2022-09-23T05:18:24;95547.02;;;14.40;64.56
6851;BME280;3464;42.728;23.296;2022-09-23T05:20:53;95545.30;;;14.56;64.64
6851;BME280;3464;42.728;23.296;2022-09-23T05:23:20;95548.19;;;14.74;63.94
6851;BME280;3464;42.728;23.296;2022-09-23T05:25:46;95546.52;;;14.75;63.57
6851;BME280;3464;42.728;23.296;2022-09-23T05:28:14;95548.18;;;14.79;63.70
6851;BME280;3464;42.728;23.296;2022-09-23T05:30:42;95548.14;;;14.94;62.62
6851;BME280;3464;42.728;23.296;2022-09-23T05:33:08;95551.92;;;14.98;62.22
6851;BME280;3464;42.728;23.296;2022-09-23T05:35:35;95550.58;;;15.14;61.81
6851;BME280;3464;42.728;23.296;2022-09-23T05:38:02;95553.11;;;15.16;61.83
6851;BME280;3464;42.728;23.296;2022-09-23T05:40:29;95561.41;;;15.50;61.03
6851;BME280;3464;42.728;23.296;2022-09-23T05:42:55;95560.85;;;15.72;60.76
6851;BME280;3464;42.728;23.296;2022-09-23T05:45:22;95555.58;;;16.01;59.76
6851;BME280;3464;42.728;23.296;2022-09-23T05:47:48;95551.52;;;16.28;59.00
6851;BME280;3464;42.728;23.296;2022-09-23T05:50:15;95553.76;;;16.15;59.27
6851;BME280;3464;42.728;23.296;2022-09-23T05:52:42;95552.00;;;16.22;59.06
6851;BME280;3464;42.728;23.296;2022-09-23T05:55:08;95542.95;;;16.40;57.89
6851;BME280;3464;42.728;23.296;2022-09-23T05:57:37;95545.53;;;16.82;57.00
6851;BME280;3464;42.728;23.296;2022-09-23T06:00:04;95552.34;;;17.15;56.27
6851;BME280;3464;42.728;23.296;2022-09-23T06:02:32;95545.84;;;17.25;55.92
6851;BME280;3464;42.728;23.296;2022-09-23T06:04:58;95547.47;;;17.31;55.39
6851;BME280;3464;42.728;23.296;2022-09-23T06:07:25;95541.50;;;17.66;55.04
6851;BME280;3464;42.728;23.296;2022-09-23T06:09:52;95540.72;;;17.89;54.96
6851;BME280;3464;42.728;23.296;2022-09-23T06:12:18;95545.62;;;18.01;53.57
6851;BME280;3464;42.728;23.296;2022-09-23T06:14:47;95547.25;;;18.33;53.54
6851;BME280;3464;42.728;23.296;2022-09-23T06:17:14;95538.77;;;18.57;51.95
6851;BME280;3464;42.728;23.296;2022-09-23T06:19:41;95537.94;;;19.22;51.55
6851;BME280;3464;42.728;23.296;2022-09-23T06:22:07;95539.39;;;20.62;48.98
6851;BME280;3464;42.728;23.296;2022-09-23T06:24:34;95530.18;;;22.04;45.85
6851;BME280;3464;42.728;23.296;2022-09-23T06:27:01;95543.73;;;21.37;46.43
6851;BME280;3464;42.728;23.296;2022-09-23T06:29:29;95536.83;;;21.25;45.78
6851;BME280;3464;42.728;23.296;2022-09-23T06:31:56;95537.29;;;20.77;46.10
6851;BME280;3464;42.728;23.296;2022-09-23T06:34:22;95542.28;;;19.96;48.01
6851;BME280;3464;42.728;23.296;2022-09-23T06:36:50;95546.66;;;18.67;50.00
6851;BME280;3464;42.728;23.296;2022-09-23T06:39:16;95551.55;;;18.55;51.15
6851;BME280;3464;42.728;23.296;2022-09-23T06:41:44;95550.11;;;18.41;51.18
6851;BME280;3464;42.728;23.296;2022-09-23T06:44:11;95548.52;;;18.32;51.93
6851;BME280;3464;42.728;23.296;2022-09-23T06:46:37;95550.06;;;18.16;51.48
6851;BME280;3464;42.728;23.296;2022-09-23T06:49:04;95534.70;;;18.71;50.79
6851;BME280;3464;42.728;23.296;2022-09-23T06:51:30;95545.91;;;19.29;49.58
6851;BME280;3464;42.728;23.296;2022-09-23T06:53:57;95546.81;;;19.05;49.95
6851;BME280;3464;42.728;23.296;2022-09-23T06:56:23;95557.62;;;19.58;49.38
6851;BME280;3464;42.728;23.296;2022-09-23T06:58:50;95558.27;;;19.28;49.24
6851;BME280;3464;42.728;23.296;2022-09-23T07:01:16;95562.63;;;19.63;49.19
6851;BME280;3464;42.728;23.296;2022-09-23T07:03:43;95558.22;;;20.07;48.20
6851;BME280;3464;42.728;23.296;2022-09-23T07:06:11;95559.78;;;20.14;47.56
6851;BME280;3464;42.728;23.296;2022-09-23T07:08:37;95564.69;;;19.85;48.38
6851;BME280;3464;42.728;23.296;2022-09-23T07:11:05;95564.72;;;20.56;47.46
6851;BME280;3464;42.728;23.296;2022-09-23T07:13:31;95562.67;;;20.69;46.75
6851;BME280;3464;42.728;23.296;2022-09-23T07:15:59;95561.44;;;20.67;46.38
6851;BME280;3464;42.728;23.296;2022-09-23T07:18:27;95555.55;;;21.13;46.47
6851;BME280;3464;42.728;23.296;2022-09-23T07:20:53;95565.73;;;20.99;46.03
6851;BME280;3464;42.728;23.296;2022-09-23T07:23:20;95565.84;;;20.27;46.72
6851;BME280;3464;42.728;23.296;2022-09-23T07:25:47;95562.48;;;20.25;46.92
6851;BME280;3464;42.728;23.296;2022-09-23T07:28:13;95565.56;;;20.39;46.81
6851;BME280;3464;42.728;23.296;2022-09-23T07:30:42;95565.77;;;20.48;46.62
6851;BME280;3464;42.728;23.296;2022-09-23T07:33:08;95570.54;;;20.27;46.74
6851;BME280;3464;42.728;23.296;2022-09-23T07:35:38;95570.03;;;20.48;46.57
6851;BME280;3464;42.728;23.296;2022-09-23T07:38:07;95571.68;;;22.17;44.29
6851;BME280;3464;42.728;23.296;2022-09-23T07:40:33;95577.84;;;20.42;46.29
6851;BME280;3464;42.728;23.296;2022-09-23T07:43:00;95577.72;;;20.80;46.06
6851;BME280;3464;42.728;23.296;2022-09-23T07:45:27;95574.41;;;21.10;45.23
6851;BME280;3464;42.728;23.296;2022-09-23T07:47:54;95577.55;;;20.53;45.33
6851;BME280;3464;42.728;23.296;2022-09-23T07:50:21;95573.08;;;20.45;46.05
6851;BME280;3464;42.728;23.296;2022-09-23T07:52:48;95571.05;;;21.23;44.87
6851;BME280;3464;42.728;23.296;2022-09-23T07:55:15;95572.81;;;22.48;43.23
6851;BME280;3464;42.728;23.296;2022-09-23T07:57:42;95579.73;;;20.68;44.30
6851;BME280;3464;42.728;23.296;2022-09-23T08:00:20;95572.34;;;20.23;45.20
6851;BME280;3464;42.728;23.296;2022-09-23T08:02:47;95578.75;;;19.24;46.53
6851;BME280;3464;42.728;23.296;2022-09-23T08:05:13;95575.95;;;19.94;46.11
6851;BME280;3464;42.728;23.296;2022-09-23T08:07:41;95579.98;;;20.43;45.81
6851;BME280;3464;42.728;23.296;2022-09-23T08:10:08;95583.59;;;20.50;45.17
6851;BME280;3464;42.728;23.296;2022-09-23T08:12:34;95580.76;;;20.45;45.39
6851;BME280;3464;42.728;23.296;2022-09-23T08:15:02;95587.69;;;20.40;44.88
6851;BME280;3464;42.728;23.296;2022-09-23T08:17:29;95588.53;;;20.41;45.14
6851;BME280;3464;42.728;23.296;2022-09-23T08:19:56;95585.98;;;19.24;46.82
6851;BME280;3464;42.728;23.296;2022-09-23T08:22:22;95582.64;;;19.21;47.19
6851;BME280;3464;42.728;23.296;2022-09-23T08:24:50;95574.78;;;19.90;46.66
6851;BME280;3464;42.728;23.296;2022-09-23T08:27:18;95575.96;;;20.49;45.94
6851;BME280;3464;42.728;23.296;2022-09-23T08:29:45;95577.38;;;21.40;45.16
6851;BME280;3464;42.728;23.296;2022-09-23T08:32:11;95575.86;;;21.78;42.91
6851;BME280;3464;42.728;23.296;2022-09-23T08:34:38;95575.94;;;20.15;44.71
6851;BME280;3464;42.728;23.296;2022-09-23T08:37:08;95573.14;;;19.88;45.28
6851;BME280;3464;42.728;23.296;2022-09-23T08:39:31;95563.88;;;20.88;44.54
6851;BME280;3464;42.728;23.296;2022-09-23T08:42:20;95570.55;;;20.93;44.37
6851;BME280;3464;42.728;23.296;2022-09-23T08:44:49;95564.87;;;20.98;43.99
6851;BME280;3464;42.728;23.296;2022-09-23T08:47:20;95569.19;;;20.64;44.86
6851;BME280;3464;42.728;23.296;2022-09-23T08:50:12;95565.03;;;20.25;44.92
6851;BME280;3464;42.728;23.296;2022-09-23T08:52:57;95571.84;;;20.07;44.86
6851;BME280;3464;42.728;23.296;2022-09-23T08:55:22;95575.56;;;19.55;45.65
6851;BME280;3464;42.728;23.296;2022-09-23T08:58:01;95559.45;;;20.27;44.71
6851;BME280;3464;42.728;23.296;2022-09-23T09:00:26;95566.06;;;19.61;45.27
6851;BME280;3464;42.728;23.296;2022-09-23T09:02:50;95565.19;;;19.81;45.64
6851;BME280;3464;42.728;23.296;2022-09-23T09:05:19;95557.05;;;20.22;44.43
6851;BME280;3464;42.728;23.296;2022-09-23T09:07:44;95552.28;;;20.91;43.48
6851;BME280;3464;42.728;23.296;2022-09-23T09:10:16;95560.48;;;21.78;41.98
6851;BME280;3464;42.728;23.296;2022-09-23T09:12:59;95559.39;;;20.12;43.45
6851;BME280;3464;42.728;23.296;2022-09-23T09:15:25;95554.98;;;20.18;43.74
6851;BME280;3464;42.728;23.296;2022-09-23T09:18:17;95564.14;;;20.28;43.49
6851;BME280;3464;42.728;23.296;2022-09-23T09:21:07;95567.88;;;20.65;42.04
6851;BME280;3464;42.728;23.296;2022-09-23T09:23:55;95558.91;;;20.50;42.38
6851;BME280;3464;42.728;23.296;2022-09-23T09:26:26;95558.37;;;21.33;41.58
6851;BME280;3464;42.728;23.296;2022-09-23T09:28:58;95561.30;;;21.05;42.04
6851;BME280;3464;42.728;23.296;2022-09-23T09:31:36;95558.53;;;21.71;40.88
6851;BME280;3464;42.728;23.296;2022-09-23T09:34:08;95557.36;;;21.39;40.71
6851;BME280;3464;42.728;23.296;2022-09-23T09:36:45;95550.66;;;21.19;40.67
6851;BME280;3464;42.728;23.296;2022-09-23T09:39:14;95552.87;;;21.17;40.97
6851;BME280;3464;42.728;23.296;2022-09-23T09:41:44;95556.66;;;22.05;39.73
6851;BME280;3464;42.728;23.296;2022-09-23T09:47:20;95553.06;;;22.88;37.84
6851;BME280;3464;42.728;23.296;2022-09-23T09:49:52;95554.12;;;22.57;37.80
6851;BME280;3464;42.728;23.296;2022-09-23T09:52:21;95554.31;;;21.70;38.99
6851;BME280;3464;42.728;23.296;2022-09-23T09:54:47;95561.78;;;21.91;38.74
6851;BME280;3464;42.728;23.296;2022-09-23T09:57:17;95551.70;;;22.26;38.50
6851;BME280;3464;42.728;23.296;2022-09-23T09:59:42;95542.85;;;22.61;37.50
6851;BME280;3464;42.728;23.296;2022-09-23T10:02:12;95545.28;;;22.27;37.40
6851;BME280;3464;42.728;23.296;2022-09-23T10:04:37;95547.74;;;22.17;38.43
6851;BME280;3464;42.728;23.296;2022-09-23T10:07:08;95542.55;;;22.71;37.54
6851;BME280;3464;42.728;23.296;2022-09-23T10:09:35;95542.10;;;22.95;36.55
6851;BME280;3464;42.728;23.296;2022-09-23T10:12:07;95537.05;;;23.41;36.67
6851;BME280;3464;42.728;23.296;2022-09-23T10:14:28;95539.47;;;22.47;37.03
6851;BME280;3464;42.728;23.296;2022-09-23T10:17:00;95540.43;;;22.82;36.95
6851;BME280;3464;42.728;23.296;2022-09-23T10:19:26;95534.55;;;22.28;37.67
6851;BME280;3464;42.728;23.296;2022-09-23T10:21:53;95527.50;;;23.21;36.08
6851;BME280;3464;42.728;23.296;2022-09-23T10:24:20;95527.61;;;23.18;36.14
6851;BME280;3464;42.728;23.296;2022-09-23T10:26:54;95526.17;;;22.61;36.27
6851;BME280;3464;42.728;23.296;2022-09-23T10:29:23;95531.69;;;21.98;35.92
6851;BME280;3464;42.728;23.296;2022-09-23T10:31:48;95520.34;;;21.48;37.09
6851;BME280;3464;42.728;23.296;2022-09-23T10:34:27;95521.25;;;22.03;37.22
6851;BME280;3464;42.728;23.296;2022-09-23T10:36:53;95513.52;;;22.05;36.09
6851;BME280;3464;42.728;23.296;2022-09-23T10:39:19;95520.30;;;21.93;36.65
6851;BME280;3464;42.728;23.296;2022-09-23T10:42:00;95515.19;;;21.21;38.01
6851;BME280;3464;42.728;23.296;2022-09-23T10:44:34;95513.37;;;22.09;37.18
6851;BME280;3464;42.728;23.296;2022-09-23T10:47:13;95513.25;;;21.58;36.89
6851;BME280;3464;42.728;23.296;2022-09-23T10:49:44;95503.22;;;21.92;36.10
6851;BME280;3464;42.728;23.296;2022-09-23T10:52:21;95510.89;;;21.79;34.65
6851;BME280;3464;42.728;23.296;2022-09-23T10:54:55;95509.94;;;21.83;34.50
6851;BME280;3464;42.728;23.296;2022-09-23T10:57:26;95509.81;;;21.15;36.35
6851;BME280;3464;42.728;23.296;2022-09-23T11:00:03;95505.30;;;21.23;36.06
6851;BME280;3464;42.728;23.296;2022-09-23T11:05:36;95494.92;;;22.37;34.82
6851;BME280;3464;42.728;23.296;2022-09-23T11:10:47;95487.67;;;22.23;35.02
6851;BME280;3464;42.728;23.296;2022-09-23T11:13:26;95485.20;;;21.82;35.43
6851;BME280;3464;42.728;23.296;2022-09-23T11:15:54;95488.06;;;21.99;35.45
6851;BME280;3464;42.728;23.296;2022-09-23T11:21:47;95477.22;;;23.14;33.80
6851;BME280;3464;42.728;23.296;2022-09-23T11:24:33;95478.77;;;23.42;34.12
6851;BME280;3464;42.728;23.296;2022-09-23T11:30:15;95470.38;;;23.92;33.33
6851;BME280;3464;42.728;23.296;2022-09-23T11:32:56;95465.44;;;23.99;32.98
6851;BME280;3464;42.728;23.296;2022-09-23T11:35:25;95464.36;;;23.93;33.06
6851;BME280;3464;42.728;23.296;2022-09-23T11:37:56;95463.62;;;23.90;32.91
6851;BME280;3464;42.728;23.296;2022-09-23T11:40:29;95459.26;;;24.24;32.80
6851;BME280;3464;42.728;23.296;2022-09-23T11:43:17;95462.56;;;23.29;33.70
6851;BME280;3464;42.728;23.296;2022-09-23T11:45:45;95455.73;;;23.94;33.06
6851;BME280;3464;42.728;23.296;2022-09-23T11:48:16;95450.34;;;25.39;31.97
6851;BME280;3464;42.728;23.296;2022-09-23T11:50:49;95461.11;;;23.11;33.33
6851;BME280;3464;42.728;23.296;2022-09-23T11:53:24;95451.11;;;23.27;33.17
6851;BME280;3464;42.728;23.296;2022-09-23T11:55:52;95462.66;;;23.15;33.53
6851;BME280;3464;42.728;23.296;2022-09-23T11:58:21;95469.79;;;23.31;33.67
6851;BME280;3464;42.728;23.296;2022-09-23T12:01:01;95482.55;;;21.70;38.83
6851;BME280;3464;42.728;23.296;2022-09-23T12:03:52;95483.23;;;21.05;39.89
6851;BME280;3464;42.728;23.296;2022-09-23T12:06:20;95479.78;;;20.90;40.96
6851;BME280;3464;42.728;23.296;2022-09-23T12:08:46;95481.95;;;20.42;41.04
6851;BME280;3464;42.728;23.296;2022-09-23T12:11:29;95481.34;;;19.81;41.87
6851;BME280;3464;42.728;23.296;2022-09-23T12:14:18;95477.61;;;20.29;41.66
6851;BME280;3464;42.728;23.296;2022-09-23T12:17:05;95489.60;;;19.73;42.07
6851;BME280;3464;42.728;23.296;2022-09-23T12:22:21;95475.66;;;19.86;42.33
6851;BME280;3464;42.728;23.296;2022-09-23T12:24:49;95475.56;;;19.90;42.16
6851;BME280;3464;42.728;23.296;2022-09-23T12:27:17;95478.20;;;20.39;41.88
6851;BME280;3464;42.728;23.296;2022-09-23T12:29:50;95473.89;;;20.41;41.62
6851;BME280;3464;42.728;23.296;2022-09-23T12:32:15;95474.83;;;20.84;40.67
6851;BME280;3464;42.728;23.296;2022-09-23T12:34:40;95465.22;;;21.23;40.23
6851;BME280;3464;42.728;23.296;2022-09-23T12:37:06;95469.45;;;20.93;40.71
6851;BME280;3464;42.728;23.296;2022-09-23T12:39:33;95465.22;;;20.46;40.89
6851;BME280;3464;42.728;23.296;2022-09-23T12:42:01;95459.59;;;19.64;41.70
6851;BME280;3464;42.728;23.296;2022-09-23T12:44:31;95466.05;;;19.22;43.87
6851;BME280;3464;42.728;23.296;2022-09-23T12:49:57;95461.28;;;19.99;43.24
6851;BME280;3464;42.728;23.296;2022-09-23T12:52:25;95456.06;;;20.04;43.07
6851;BME280;3464;42.728;23.296;2022-09-23T12:54:54;95460.89;;;19.98;41.33
6851;BME280;3464;42.728;23.296;2022-09-23T12:57:41;95461.80;;;20.62;39.69
6851;BME280;3464;42.728;23.296;2022-09-23T13:00:21;95459.88;;;19.88;41.05
6851;BME280;3464;42.728;23.296;2022-09-23T13:03:01;95445.34;;;20.40;40.50
6851;BME280;3464;42.728;23.296;2022-09-23T13:05:41;95442.00;;;20.53;40.51
6851;BME280;3464;42.728;23.296;2022-09-23T13:08:19;95449.19;;;20.71;40.20
6851;BME280;3464;42.728;23.296;2022-09-23T13:10:46;95451.48;;;20.97;39.99
6851;BME280;3464;42.728;23.296;2022-09-23T13:13:18;95453.76;;;20.90;39.98
6851;BME280;3464;42.728;23.296;2022-09-23T13:15:41;95449.92;;;20.90;39.72
6851;BME280;3464;42.728;23.296;2022-09-23T13:20:51;95460.91;;;20.79;40.29
6851;BME280;3464;42.728;23.296;2022-09-23T13:23:24;95452.62;;;20.54;40.41
6851;BME280;3464;42.728;23.296;2022-09-23T13:25:50;95448.59;;;21.08;39.74
6851;BME280;3464;42.728;23.296;2022-09-23T13:30:52;95444.72;;;20.78;39.78
6851;BME280;3464;42.728;23.296;2022-09-23T13:33:33;95441.17;;;20.83;39.69
6851;BME280;3464;42.728;23.296;2022-09-23T13:35:59;95440.42;;;20.33;40.89
6851;BME280;3464;42.728;23.296;2022-09-23T13:38:25;95439.83;;;20.55;40.72
6851;BME280;3464;42.728;23.296;2022-09-23T13:40:57;95430.78;;;21.19;39.93
6851;BME280;3464;42.728;23.296;2022-09-23T13:43:25;95437.45;;;21.10;40.00
6851;BME280;3464;42.728;23.296;2022-09-23T13:45:50;95432.12;;;21.03;39.41
6851;BME280;3464;42.728;23.296;2022-09-23T13:48:17;95426.97;;;21.31;38.23
6851;BME280;3464;42.728;23.296;2022-09-23T13:50:47;95427.25;;;21.36;37.94
6851;BME280;3464;42.728;23.296;2022-09-23T13:53:19;95433.16;;;21.80;37.50
6851;BME280;3464;42.728;23.296;2022-09-23T13:55:43;95435.28;;;21.92;36.92
6851;BME280;3464;42.728;23.296;2022-09-23T13:58:13;95427.44;;;22.10;36.71